Latest Weather Observations for Yarrawonga

IDN60801

Issued at 8:35 pm EDT Thursday 23 October 2014 (issued every 30 minutes, with the page automatically refreshed every 10 minutes)

About weather observations | Map of weather stations | Latest weather observations for NSW | Other Formats
Station Details ID: 081124 Name: YARRAWONGA Lat: -36.03 Lon: 146.03 Height: 128.9 m
Data from the previous 72 hours. | See also: Recent months at Yarrawonga
Date/Time
EDT
Temp
°C
App
Temp
°C
Dew
Point
Rel
Hum
%
Delta-T
°C
Wind Press
QNH
hPa
Press
MSL
hPa
Rain
since 9 am
mm
Dir
 
Spd
km/h
Gust
km/h
Spd
kts
Gust
kts
23/08:30pm 23.7 23.1 13.6 53 5.9 ESE 9 11 5 6 1011.4 1011.3 0.0
23/08:00pm 25.7 24.9 13.9 48 7.0 ESE 11 13 6 7 1011.2 1011.1 0.0
23/07:30pm 27.9 27.2 14.2 43 8.3 ESE 11 13 6 7 1011.0 1010.9 0.0
23/07:00pm 30.2 29.6 13.5 36 10.0 ESE 9 15 5 8 1010.8 1010.7 0.0
23/06:30pm 31.8 31.4 11.0 28 12.1 WSW 4 6 2 3 1010.6 1010.5 0.0
23/06:00pm 35.0 33.6 7.1 18 15.5 NW 4 9 2 5 1010.6 1010.5 0.0
23/05:30pm 34.6 32.2 6.8 18 15.4 N 9 11 5 6 1010.9 1010.8 0.0
23/05:00pm 34.7 32.5 6.1 17 15.6 N 7 13 4 7 1011.0 1010.9 0.0
23/04:30pm 35.1 31.8 6.4 17 15.8 N 13 22 7 12 1011.2 1011.1 0.0
23/04:00pm 35.8 33.0 7.0 17 16.1 N 11 26 6 14 1011.4 1011.3 0.0
23/03:30pm 34.9 32.3 6.2 17 15.7 NNW 9 20 5 11 1011.8 1011.7 0.0
23/03:00pm 35.3 33.0 7.4 18 15.6 N 9 17 5 9 1012.3 1012.2 0.0
23/02:30pm 34.3 31.6 7.4 19 15.0 NNE 11 20 6 11 1012.7 1012.6 0.0
23/02:00pm 34.2 31.7 8.0 20 14.7 NE 11 20 6 11 1013.1 1013.0 0.0
23/01:30pm 33.4 31.6 10.7 25 13.2 E 11 19 6 10 1013.6 1013.5 0.0
23/01:00pm 31.9 29.3 10.6 27 12.3 NE 15 22 8 12 1014.1 1014.0 0.0
23/12:30pm 32.6 30.9 11.2 27 12.5 NNE 11 20 6 11 1014.6 1014.5 0.0
23/12:00pm 30.6 28.1 11.1 30 11.3 NNE 15 22 8 12 1015.3 1015.2 0.0
23/11:30am 30.3 28.0 11.8 32 10.8 NE 15 22 8 12 1015.8 1015.7 0.0
23/11:00am 29.4 27.1 11.9 34 10.2 ENE 15 24 8 13 1016.1 1016.0 0.0
23/10:30am 27.8 25.8 12.6 39 8.9 ENE 15 20 8 11 1016.4 1016.3 0.0
23/10:00am 26.9 24.7 13.3 43 8.0 ENE 17 22 9 12 1016.6 1016.5 0.0
23/09:30am 25.1 23.1 13.9 49 6.6 E 17 20 9 11 1016.6 1016.5 0.0
23/09:00am 23.3 21.3 14.0 56 5.5 ENE 17 22 9 12 1016.8 1016.7 0.0
23/08:30am 22.3 20.8 14.2 60 4.8 E 15 20 8 11 1016.7 1016.6 0.0
23/08:00am 19.8 19.6 14.6 72 3.0 E 9 13 5 7 1016.6 1016.5 0.0
23/07:30am 19.2 18.0 14.0 72 3.0 E 13 19 7 10 1016.3 1016.2 0.0
23/07:00am 17.6 17.2 14.1 80 2.0 E 9 15 5 8 1015.8 1015.7 0.0
23/06:30am 16.1 15.5 13.4 84 1.5 E 9 13 5 7 1015.8 1015.7 0.0
23/06:00am 17.0 17.0 13.7 81 1.9 SE 6 9 3 5 1016.0 1015.9 0.0
23/05:30am 17.4 16.3 13.1 76 2.4 E 11 13 6 7 1015.5 1015.4 0.0
23/05:00am 18.5 17.5 13.4 72 2.9 ENE 11 17 6 9 1015.1 1015.0 0.0
23/04:30am 17.8 18.1 13.5 76 2.4 E 4 7 2 4 1015.2 1015.1 0.0
23/04:00am 17.9 17.7 13.6 76 2.5 E 7 11 4 6 1015.3 1015.2 0.0
23/03:30am 17.6 16.9 13.1 75 2.5 ESE 9 11 5 6 1015.4 1015.3 0.0
23/03:00am 18.9 18.2 13.3 70 3.2 SE 9 13 5 7 1015.6 1015.5 0.0
23/02:30am 20.8 19.9 13.7 64 4.1 E 11 19 6 10 1015.8 1015.7 0.0
23/02:00am 21.3 19.5 14.5 65 4.0 NE 17 24 9 13 1015.1 1015.0 0.0
23/01:30am 19.0 18.1 13.8 72 3.0 E 11 17 6 9 1016.2 1016.1 0.0
23/01:00am 19.2 19.7 14.0 72 3.0 E 4 6 2 3 1017.1 1017.0 0.0
23/12:30am 19.5 19.0 13.7 69 3.3 E 9 13 5 7 1017.0 1016.9 0.0
23/12:00am 20.6 20.3 13.3 63 4.2 E 7 7 4 4 1017.7 1017.6 0.0
 
Date/Time
EDT
Temp
°C
App
Temp
°C
Dew
Point
Rel
Hum
%
Delta-T
°C
Wind Press
QNH
hPa
Press
MSL
hPa
Rain
since 9 am
mm
Dir
 
Spd
km/h
Gust
km/h
Spd
kts
Gust
kts
22/11:30pm 23.9 22.7 12.8 49 6.4 NW 11 22 6 12 1018.3 1018.2 0.0
22/11:04pm 21.8 17.3 13.9 61 4.6 W 30 72 16 39 1017.9 1017.8 0.0
22/11:00pm 19.7 17.3 14.3 71 3.1 W 20 39 11 21 1017.8 1017.7 0.0
22/10:30pm 19.4 18.4 13.3 68 3.5 E 11 13 6 7 1016.6 1016.5 0.0
22/10:00pm 19.3 18.5 13.0 67 3.6 E 9 11 5 6 1016.8 1016.7 0.0
22/09:30pm 19.0 18.6 13.0 68 3.4 E 7 9 4 5 1017.0 1016.9 0.0
22/09:00pm 20.0 19.6 13.0 64 4.0 ESE 7 7 4 4 1016.9 1016.8 0.0
22/08:30pm 20.9 20.0 12.6 59 4.7 ESE 9 11 5 6 1016.7 1016.6 0.0
22/08:00pm 22.2 20.9 12.5 54 5.5 ESE 11 13 6 7 1016.3 1016.2 0.0
22/07:30pm 24.3 23.5 12.9 49 6.6 ESE 9 11 5 6 1016.2 1016.1 0.0
22/07:00pm 27.8 26.8 12.2 38 9.1 ESE 9 11 5 6 1016.0 1015.9 0.0
22/06:30pm 29.7 29.1 11.7 33 10.5 ESE 6 9 3 5 1015.9 1015.8 0.0
22/06:00pm 30.1 28.6 9.1 27 11.8 E 7 11 4 6 1016.0 1015.9 0.0
22/05:30pm 30.3 28.9 8.7 26 12.0 NE 6 9 3 5 1016.1 1016.0 0.0
22/05:00pm 30.3 28.4 9.2 27 11.8 ENE 9 17 5 9 1016.3 1016.2 0.0
22/04:30pm 30.7 29.1 10.1 28 11.8 E 9 19 5 10 1016.6 1016.5 0.0
22/04:00pm 29.9 28.6 9.9 29 11.3 NE 7 17 4 9 1017.0 1016.9 0.0
22/03:30pm 29.7 27.9 10.8 31 10.9 ENE 11 15 6 8 1017.4 1017.3 0.0
22/03:00pm 28.9 26.9 10.1 31 10.6 ENE 11 22 6 12 1017.8 1017.7 0.0
22/02:30pm 28.4 26.4 10.1 32 10.3 NNE 11 20 6 11 1018.3 1018.2 0.0
22/02:00pm 28.7 26.5 10.8 33 10.2 NNE 13 19 7 10 1018.8 1018.7 0.0
22/01:30pm 28.5 26.8 11.1 34 10.0 NNE 11 19 6 10 1019.4 1019.3 0.0
22/01:00pm 26.9 24.2 10.2 35 9.4 NNE 15 26 8 14 1019.9 1019.8 0.0
22/12:30pm 26.3 23.3 10.5 37 8.9 NNE 17 22 9 12 1020.4 1020.3 0.0
22/12:00pm 25.7 22.7 10.7 39 8.4 NE 17 32 9 17 1020.8 1020.7 0.0
22/11:30am 24.5 21.2 10.8 42 7.7 ENE 19 28 10 15 1021.2 1021.1 0.0
22/11:00am 23.2 19.3 10.9 46 6.8 NE 22 30 12 16 1021.7 1021.7 0.0
22/10:30am 22.2 18.3 10.7 48 6.4 NE 22 33 12 18 1022.0 1022.0 0.0
22/10:00am 21.1 17.5 10.6 51 5.7 NE 20 30 11 16 1022.3 1022.3 0.0
22/09:30am 19.3 15.2 10.0 55 5.0 NE 22 32 12 17 1022.6 1022.6 0.0
22/09:00am 18.8 14.7 10.1 57 4.7 NE 22 32 12 17 1022.8 1022.8 0.0
22/08:30am 16.9 13.2 10.3 65 3.5 ENE 20 28 11 15 1023.2 1023.1 0.0
22/08:00am 16.1 12.5 10.0 67 3.2 ENE 19 26 10 14 1023.2 1023.1 0.0
22/07:30am 14.9 12.6 10.5 75 2.3 ENE 13 17 7 9 1023.1 1023.0 0.0
22/07:00am 13.6 11.3 10.6 82 1.6 ENE 13 19 7 10 1022.7 1022.7 0.0
22/06:30am 12.7 10.7 10.2 85 1.3 ENE 11 17 6 9 1022.7 1022.7 0.0
22/06:00am 12.7 11.1 10.2 85 1.3 NE 9 13 5 7 1022.5 1022.5 0.0
22/05:30am 12.7 10.7 10.2 85 1.3 NE 11 15 6 8 1022.1 1022.1 0.0
22/05:00am 12.7 10.7 10.2 85 1.3 ENE 11 13 6 7 1021.9 1021.9 0.0
22/04:30am 12.9 11.3 10.3 84 1.4 NE 9 11 5 6 1022.0 1022.0 0.0
22/04:00am 13.3 10.9 10.1 81 1.7 NE 13 17 7 9 1021.9 1021.9 0.0
22/03:30am 14.4 12.1 10.4 77 2.1 NE 13 19 7 10 1022.0 1022.0 0.0
22/03:00am 14.9 12.4 10.9 77 2.1 ENE 15 19 8 10 1021.9 1021.9 0.0
22/02:30am 14.8 12.3 11.0 78 2.0 ENE 15 19 8 10 1022.2 1022.2 0.0
22/02:00am 15.4 12.9 11.2 76 2.3 ENE 15 19 8 10 1022.6 1022.6 0.0
22/01:30am 15.1 12.9 10.9 76 2.2 ENE 13 17 7 9 1022.9 1022.9 0.0
22/01:00am 15.4 13.3 11.2 76 2.2 ENE 13 17 7 9 1023.4 1023.3 0.0
22/12:30am 15.5 13.8 11.3 76 2.3 ENE 11 15 6 8 1023.6 1023.5 0.0
22/12:00am 15.9 14.7 11.5 75 2.4 NE 9 13 5 7 1023.7 1023.6 0.0
 
Date/Time
EDT
Temp
°C
App
Temp
°C
Dew
Point
Rel
Hum
%
Delta-T
°C
Wind Press
QNH
hPa
Press
MSL
hPa
Rain
since 9 am
mm
Dir
 
Spd
km/h
Gust
km/h
Spd
kts
Gust
kts
21/11:30pm 16.1 14.4 11.3 73 2.6 NE 11 13 6 7 1023.8 1023.7 0.0
21/11:00pm 17.2 16.3 11.2 68 3.2 NE 7 11 4 6 1023.9 1023.8 0.0
21/10:30pm 17.7 16.0 11.3 66 3.5 NE 11 13 6 7 1023.8 1023.7 0.0
21/10:00pm 18.9 16.8 11.2 61 4.2 NE 13 17 7 9 1023.8 1023.7 0.0
21/09:30pm 18.1 15.9 10.7 62 4.0 ENE 13 19 7 10 1023.6 1023.5 0.0
21/09:00pm 16.8 15.2 10.2 65 3.5 E 9 9 5 5 1023.4 1023.3 0.0
21/08:30pm 18.1 17.1 11.0 63 3.9 E 7 9 4 5 1023.2 1023.1 0.0
21/08:00pm 19.6 18.5 10.6 56 4.9 E 7 9 4 5 1022.8 1022.8 0.0
21/07:30pm 22.1 20.5 10.3 47 6.5 E 9 11 5 6 1022.6 1022.6 0.0
21/07:00pm 24.8 23.2 10.3 40 8.0 E 9 11 5 6 1022.5 1022.5 0.0
21/06:30pm 26.6 24.7 9.0 33 9.7 E 9 11 5 6 1022.4 1022.4 0.0
21/06:00pm 27.4 25.0 8.8 31 10.2 ENE 11 15 6 8 1022.6 1022.6 0.0
21/05:30pm 27.8 25.4 8.6 30 10.5 ENE 11 17 6 9 1022.6 1022.6 0.0
21/05:00pm 28.0 25.8 9.3 31 10.4 ENE 11 17 6 9 1022.6 1022.6 0.0
21/04:30pm 27.9 25.5 8.7 30 10.6 ENE 11 19 6 10 1022.8 1022.8 0.0
21/04:00pm 27.9 25.8 9.7 32 10.1 E 11 19 6 10 1023.3 1023.2 0.0
21/03:30pm 27.6 25.0 9.4 32 10.1 E 13 24 7 13 1023.7 1023.6 0.0
21/03:00pm 27.3 25.2 9.6 33 9.8 E 11 22 6 12 1024.1 1024.0 0.0
21/02:30pm 26.9 24.8 9.7 34 9.6 ENE 11 19 6 10 1024.6 1024.5 0.0
21/02:00pm 26.6 24.5 9.9 35 9.3 NE 11 24 6 13 1025.0 1024.9 0.0
21/01:30pm 25.6 22.2 9.0 35 9.1 ENE 17 28 9 15 1025.5 1025.4 0.0
21/01:00pm 25.1 21.8 9.4 37 8.6 E 17 24 9 13 1025.9 1025.8 0.0
21/12:30pm 24.9 22.0 9.6 38 8.4 ENE 15 22 8 12 1026.2 1026.1 0.0
21/12:00pm 24.6 20.9 9.3 38 8.3 ENE 19 33 10 18 1026.6 1026.5 0.0
21/11:30am 23.0 19.0 9.0 41 7.5 ENE 20 30 11 16 1027.1 1027.0 0.0
21/11:00am 22.1 18.4 9.3 44 6.9 ENE 19 28 10 15 1027.4 1027.3 0.0
21/10:30am 20.1 16.0 8.8 48 6.0 NE 20 30 11 16 1027.7 1027.6 0.0
21/10:00am 19.3 15.2 8.6 50 5.6 ENE 20 28 11 15 1027.7 1027.6 0.0
21/09:30am 18.0 13.5 8.6 54 4.9 NE 22 32 12 17 1027.8 1027.7 0.0
21/09:00am 17.0 12.8 8.4 57 4.4 NE 20 30 11 16 1027.7 1027.6 0.0
21/08:30am 15.8 12.4 9.2 65 3.4 ENE 17 22 9 12 1027.6 1027.5 0.0
21/08:00am 14.5 11.4 8.9 69 2.8 ENE 15 22 8 12 1027.3 1027.2 0.0
21/07:30am 13.1 10.7 8.8 75 2.2 NE 11 15 6 8 1027.2 1027.1 0.0
21/07:00am 11.2 9.2 8.8 85 1.2 NE 9 13 5 7 1026.9 1026.8 0.0
21/06:30am 10.4 8.0 8.5 88 0.9 NE 11 13 6 7 1026.6 1026.5 0.0
21/06:00am 10.5 8.0 8.3 86 1.1 ENE 11 13 6 7 1026.2 1026.1 0.0
21/05:30am 11.2 8.8 8.6 84 1.3 NE 11 15 6 8 1025.9 1025.8 0.0
21/05:00am 11.6 8.8 8.6 82 1.5 NE 13 15 7 8 1025.9 1025.8 0.0
21/04:30am 12.3 9.6 9.0 80 1.7 ENE 13 20 7 11 1025.7 1025.6 0.0
21/04:00am 11.8 9.8 8.6 81 1.6 NE 9 13 5 7 1025.6 1025.5 0.0
21/03:30am 12.8 10.0 8.7 76 2.1 NE 13 19 7 10 1025.7 1025.6 0.0
21/03:00am 13.9 10.0 8.7 71 2.6 NNE 19 30 10 16 1025.7 1025.6 0.0
21/02:30am 12.9 10.3 9.5 80 1.7 NE 13 17 7 9 1025.7 1025.6 0.0
21/02:00am 13.8 11.2 9.3 74 2.3 NE 13 19 7 10 1025.8 1025.7 0.0
21/01:30am 14.8 11.8 9.4 70 2.8 NE 15 20 8 11 1025.8 1025.7 0.0
21/01:00am 15.2 12.5 10.2 72 2.6 NE 15 22 8 12 1025.7 1025.6 0.0
21/12:30am 14.1 11.8 9.1 72 2.6 NE 11 15 6 8 1025.4 1025.3 0.0
21/12:00am 11.7 9.5 8.0 78 1.8 E 9 15 5 8 1025.0 1024.9 0.0
 
Date/Time
EDT
Temp
°C
App
Temp
°C
Dew
Point
Rel
Hum
%
Delta-T
°C
Wind Press
QNH
hPa
Press
MSL
hPa
Rain
since 9 am
mm
Dir
 
Spd
km/h
Gust
km/h
Spd
kts
Gust
kts
20/11:30pm 11.1 9.9 8.0 81 1.5 S 4 6 2 3 1024.9 1024.8 0.0
20/11:00pm 12.1 10.5 8.2 77 1.9 SSW 6 7 3 4 1024.5 1024.4 0.0
20/10:30pm 12.0 10.2 8.1 77 1.9 WSW 7 9 4 5 1024.3 1024.2 0.0
20/10:00pm 13.1 11.4 8.2 72 2.4 WSW 7 9 4 5 1024.1 1024.0 0.0
20/09:30pm 15.5 13.3 8.0 61 3.8 WSW 9 11 5 6 1024.0 1023.9 0.0
20/09:00pm 15.5 13.3 7.8 60 3.9 SW 9 11 5 6 1023.6 1023.5 0.0

Other Formats:

Comma delimited format used in spreadsheet applications
http://www.bom.gov.au/fwo/IDN60801/IDN60801.94862.axf

JavaScript Object Notation format (JSON) in row-major order
http://www.bom.gov.au/fwo/IDN60801/IDN60801.94862.json